createdAt,value
2019-04-06T00:00:06.327Z,44.27
2019-04-06T00:02:37.805Z,46.42
2019-04-06T00:05:08.717Z,49.90
2019-04-06T00:07:38.016Z,49.53
2019-04-06T00:10:08.535Z,53.35
2019-04-06T00:12:37.925Z,55.03
2019-04-06T00:15:08.001Z,56.60
2019-04-06T00:17:37.454Z,42.23
2019-04-06T00:20:07.135Z,41.53
2019-04-06T00:22:36.491Z,59.80
2019-04-06T00:25:06.696Z,55.10
2019-04-06T00:27:36.099Z,47.23
2019-04-06T00:30:07.954Z,47.40
2019-04-06T00:32:41.920Z,55.58
2019-04-06T00:35:14.437Z,49.80
2019-04-06T00:37:43.823Z,55.12
2019-04-06T00:40:13.205Z,52.90
2019-04-06T00:42:42.597Z,48.30
2019-04-06T00:45:12.266Z,43.87
2019-04-06T00:47:41.659Z,64.82
2019-04-06T00:50:11.205Z,45.35
2019-04-06T00:52:40.625Z,46.02
2019-04-06T00:55:11.331Z,45.60
2019-04-06T00:57:40.758Z,80.55
2019-04-06T01:00:10.331Z,45.85
2019-04-06T01:02:39.665Z,47.95
2019-04-06T01:05:09.449Z,43.58
2019-04-06T01:07:38.868Z,48.98
2019-04-06T01:10:08.286Z,49.00
2019-04-06T01:12:37.620Z,53.30
2019-04-06T01:15:08.022Z,51.55
2019-04-06T01:17:37.337Z,46.25
2019-04-06T01:20:07.408Z,48.90
2019-04-06T01:22:36.784Z,45.45
2019-04-06T01:25:06.517Z,56.77
2019-04-06T01:27:35.950Z,56.48
2019-04-06T01:30:06.756Z,43.58
2019-04-06T01:32:36.109Z,48.33
2019-04-06T01:35:05.732Z,44.67
2019-04-06T01:37:35.349Z,47.90
2019-04-06T01:40:05.216Z,49.35
2019-04-06T01:42:34.618Z,50.85
2019-04-06T01:45:04.632Z,57.78
2019-04-06T01:47:33.943Z,54.58
2019-04-06T01:50:03.292Z,53.13
2019-04-06T01:52:32.635Z,65.15
2019-04-06T01:55:02.082Z,54.08
2019-04-06T01:57:31.437Z,53.23
2019-04-06T02:00:00.825Z,57.55
2019-04-06T02:02:32.697Z,66.55
2019-04-06T02:05:02.026Z,60.05
2019-04-06T02:07:31.456Z,57.20
2019-04-06T02:10:00.827Z,56.98
2019-04-06T02:12:30.175Z,57.10
2019-04-06T02:14:59.682Z,50.75
2019-04-06T02:17:29.071Z,59.80
2019-04-06T02:19:58.471Z,55.48
2019-04-06T02:22:27.780Z,69.25
2019-04-06T02:24:57.096Z,64.35
2019-04-06T02:27:26.519Z,60.43
2019-04-06T02:30:13.993Z,64.58
2019-04-06T02:33:20.640Z,62.23
2019-04-06T02:36:08.958Z,52.25
2019-04-06T02:38:53.199Z,62.03
2019-04-06T02:41:50.872Z,57.17
2019-04-06T02:44:22.622Z,60.10
2019-04-06T02:46:52.055Z,54.13
2019-04-06T02:49:21.585Z,58.83
2019-04-06T02:51:51.048Z,60.83
2019-04-06T02:54:20.422Z,53.55
2019-04-06T02:56:49.873Z,61.90
2019-04-06T02:59:19.229Z,61.20
2019-04-06T03:01:48.676Z,56.58
2019-04-06T03:04:18.082Z,52.48
2019-04-06T03:06:47.498Z,59.00
2019-04-06T03:09:16.898Z,68.75
2019-04-06T03:11:46.364Z,68.67
2019-04-06T03:14:15.994Z,64.58
2019-04-06T03:16:45.371Z,55.43
2019-04-06T03:19:14.689Z,59.48
2019-04-06T03:21:44.183Z,77.27
2019-04-06T03:24:13.569Z,63.02
2019-04-06T03:26:42.996Z,78.62
2019-04-06T03:29:12.454Z,72.67
2019-04-06T03:31:44.269Z,57.83
2019-04-06T03:34:19.845Z,76.33
2019-04-06T03:36:44.776Z,64.12
2019-04-06T03:39:14.155Z,72.85
2019-04-06T03:41:43.551Z,72.72
2019-04-06T03:44:12.948Z,60.33
2019-04-06T03:46:42.392Z,65.78
2019-04-06T03:49:11.828Z,52.25
2019-04-06T03:51:41.167Z,59.23
2019-04-06T03:54:11.636Z,98.58
2019-04-06T03:56:41.086Z,127.10
2019-04-06T03:59:10.534Z,147.32
2019-04-06T04:01:41.078Z,147.50
2019-04-06T04:04:10.511Z,113.47
2019-04-06T04:06:39.904Z,126.22
2019-04-06T04:09:09.274Z,130.75
2019-04-06T04:11:38.706Z,180.55
2019-04-06T04:14:08.123Z,153.68
2019-04-06T04:16:37.436Z,147.72
2019-04-06T04:19:06.896Z,106.22
2019-04-06T04:21:36.306Z,178.18
2019-04-06T04:24:05.754Z,129.45
2019-04-06T04:26:35.243Z,157.05
2019-04-06T04:29:04.637Z,150.87
2019-04-06T04:31:33.966Z,175.20
2019-04-06T04:34:03.609Z,215.28
2019-04-06T04:36:33.072Z,184.07
2019-04-06T04:39:02.735Z,164.28
2019-04-06T04:41:32.214Z,150.90
2019-04-06T04:44:01.796Z,141.68
2019-04-06T04:46:31.235Z,110.08
2019-04-06T04:49:00.667Z,101.33
2019-04-06T04:51:30.110Z,96.32
2019-04-06T04:53:59.470Z,145.10
2019-04-06T04:56:28.878Z,152.22
2019-04-06T04:58:58.310Z,140.43
2019-04-06T05:01:27.698Z,131.70
2019-04-06T05:03:56.994Z,127.38
2019-04-06T05:06:26.358Z,103.45
2019-04-06T05:08:55.854Z,122.20
2019-04-06T05:11:25.417Z,145.72
2019-04-06T05:14:31.308Z,197.25
2019-04-06T05:17:00.857Z,204.85
2019-04-06T05:19:30.346Z,162.30
2019-04-06T05:21:59.671Z,190.10
2019-04-06T05:24:29.070Z,199.90
2019-04-06T05:26:58.492Z,179.47
2019-04-06T05:29:27.866Z,195.25
2019-04-06T05:31:57.190Z,199.35
2019-04-06T05:34:26.475Z,221.35
2019-04-06T05:36:55.856Z,190.85
2019-04-06T05:39:25.315Z,160.28
2019-04-06T05:41:54.752Z,184.22
2019-04-06T05:44:24.241Z,187.43
2019-04-06T05:46:53.647Z,174.45
2019-04-06T05:49:23.034Z,150.95
2019-04-06T05:51:52.762Z,142.98
2019-04-06T05:54:22.351Z,137.45
2019-04-06T05:56:51.751Z,147.47
2019-04-06T05:59:21.197Z,145.77
2019-04-06T06:01:50.603Z,127.02
2019-04-06T06:04:20.018Z,159.37
2019-04-06T06:06:49.843Z,133.35
2019-04-06T06:09:19.258Z,122.05
2019-04-06T06:11:48.667Z,108.45
2019-04-06T06:14:18.061Z,101.85
2019-04-06T06:16:47.506Z,112.60
2019-04-06T06:19:17.017Z,99.37
2019-04-06T06:21:46.439Z,100.07
2019-04-06T06:24:15.807Z,84.47
2019-04-06T06:26:45.485Z,108.00
2019-04-06T06:29:14.906Z,106.12
2019-04-06T06:31:44.287Z,100.22
2019-04-06T06:34:13.712Z,108.83
2019-04-06T06:36:43.305Z,97.45
2019-04-06T06:39:12.799Z,92.05
2019-04-06T06:41:42.127Z,96.42
2019-04-06T06:44:11.543Z,103.92
2019-04-06T06:46:40.937Z,106.17
2019-04-06T06:49:10.292Z,91.92
2019-04-06T06:51:39.663Z,97.37
2019-04-06T06:54:08.978Z,84.55
2019-04-06T06:56:38.328Z,90.50
2019-04-06T06:59:07.660Z,85.40
2019-04-06T07:01:37.031Z,87.35
2019-04-06T07:04:06.378Z,72.65
2019-04-06T07:06:35.964Z,77.35
2019-04-06T07:09:07.270Z,84.15
2019-04-06T07:11:36.626Z,77.58
2019-04-06T07:14:06.168Z,73.02
2019-04-06T07:16:47.836Z,59.23
2019-04-06T07:19:17.363Z,70.15
2019-04-06T07:21:46.872Z,63.48
2019-04-06T07:24:16.317Z,53.63
2019-04-06T07:26:45.694Z,48.45
2019-04-06T07:29:15.149Z,57.60
2019-04-06T07:31:44.554Z,54.83
2019-04-06T07:34:14.069Z,57.65
2019-04-06T07:36:43.386Z,53.20
2019-04-06T07:39:12.965Z,52.80
2019-04-06T07:41:42.283Z,52.30
2019-04-06T07:44:11.671Z,47.33
2019-04-06T07:46:41.099Z,51.02
2019-04-06T07:49:10.732Z,47.65
2019-04-06T07:51:40.184Z,46.68
2019-04-06T07:54:09.582Z,45.90
2019-04-06T07:56:39.088Z,52.17
2019-04-06T07:59:08.477Z,48.15
2019-04-06T08:01:38.071Z,41.60
2019-04-06T08:04:07.381Z,49.30
2019-04-06T08:06:36.748Z,53.68
2019-04-06T08:09:08.414Z,46.10
2019-04-06T08:11:37.905Z,48.95
2019-04-06T08:14:07.959Z,53.73
2019-04-06T08:16:37.379Z,53.83
2019-04-06T08:19:06.792Z,48.48
2019-04-06T08:21:36.176Z,50.98
2019-04-06T08:24:05.526Z,45.00
2019-04-06T08:26:34.872Z,43.33
2019-04-06T08:29:04.286Z,49.35
2019-04-06T08:31:33.849Z,51.35
2019-04-06T08:34:03.557Z,45.65
2019-04-06T08:36:33.077Z,43.63
2019-04-06T08:39:02.475Z,52.08
2019-04-06T08:41:31.984Z,57.23
2019-04-06T08:44:01.451Z,51.55
2019-04-06T08:46:30.851Z,44.70
2019-04-06T08:49:00.275Z,46.20
2019-04-06T08:51:29.995Z,31.62
2019-04-06T08:53:59.576Z,51.55
2019-04-06T08:56:29.033Z,41.40
2019-04-06T08:58:58.500Z,53.73
2019-04-06T09:01:28.030Z,51.25
2019-04-06T09:03:57.442Z,41.80
2019-04-06T09:06:26.846Z,55.30
2019-04-06T09:08:59.132Z,39.18
2019-04-06T09:11:28.722Z,43.80
2019-04-06T09:13:58.178Z,48.38
2019-04-06T09:16:27.590Z,43.83
2019-04-06T09:18:56.930Z,43.15
2019-04-06T09:21:26.367Z,41.68
2019-04-06T09:23:58.198Z,43.08
2019-04-06T09:26:27.039Z,46.85
2019-04-06T09:28:56.580Z,46.10
2019-04-06T09:31:26.067Z,47.15
2019-04-06T09:33:55.668Z,41.77
2019-04-06T09:36:25.115Z,44.00
2019-04-06T09:38:54.445Z,44.18
2019-04-06T09:41:26.125Z,44.08
2019-04-06T09:43:55.119Z,51.85
2019-04-06T09:46:52.392Z,44.13
2019-04-06T09:49:51.490Z,44.77
2019-04-06T09:52:35.673Z,42.30
2019-04-06T09:55:22.011Z,50.92
2019-04-06T09:58:04.890Z,53.05
2019-04-06T10:00:50.530Z,49.05
2019-04-06T10:03:32.436Z,48.13
2019-04-06T10:06:23.277Z,55.20
2019-04-06T10:09:07.651Z,53.05
2019-04-06T10:11:48.303Z,63.30
2019-04-06T10:14:54.983Z,59.20
2019-04-06T10:17:42.614Z,58.35
2019-04-06T10:20:34.236Z,64.62
2019-04-06T10:23:25.410Z,60.37
2019-04-06T10:26:23.556Z,56.60
2019-04-06T10:29:14.854Z,56.70
2019-04-06T10:32:12.069Z,58.07
2019-04-06T10:34:54.014Z,70.63
2019-04-06T10:37:48.644Z,53.97
2019-04-06T10:40:40.780Z,72.07
2019-04-06T10:43:29.390Z,54.10
2019-04-06T10:46:30.403Z,56.93
2019-04-06T10:49:13.256Z,58.03
2019-04-06T10:52:08.844Z,64.47
2019-04-06T10:55:03.123Z,50.23
2019-04-06T10:57:42.669Z,51.73
2019-04-06T11:00:24.115Z,61.40
2019-04-06T11:03:02.719Z,50.17
2019-04-06T11:05:46.721Z,46.73
2019-04-06T11:08:33.841Z,70.47
2019-04-06T11:11:28.466Z,53.23
2019-04-06T11:14:20.048Z,56.23
2019-04-06T11:17:08.516Z,63.37
2019-04-06T11:20:09.483Z,51.53
2019-04-06T11:23:16.411Z,52.90
2019-04-06T11:26:05.000Z,50.73
2019-04-06T11:28:56.114Z,44.87
2019-04-06T11:31:56.497Z,48.60
2019-04-06T11:34:44.866Z,40.80
2019-04-06T11:37:31.869Z,41.97
2019-04-06T11:40:20.278Z,29.13
2019-04-06T11:43:17.760Z,40.80
2019-04-06T11:46:02.914Z,35.60
2019-04-06T11:48:48.844Z,34.93
2019-04-06T11:51:37.569Z,42.23
2019-04-06T11:54:41.873Z,36.20
2019-04-06T11:57:33.238Z,26.90
2019-04-06T12:00:26.517Z,23.33
2019-04-06T12:03:02.933Z,28.47
2019-04-06T12:05:54.024Z,29.40
2019-04-06T12:08:45.172Z,31.07
2019-04-06T12:11:36.619Z,34.93
2019-04-06T12:14:22.617Z,34.70
2019-04-06T12:17:20.339Z,29.47
2019-04-06T12:20:02.281Z,32.23
2019-04-06T12:22:50.837Z,36.53
2019-04-06T12:25:42.719Z,34.57
2019-04-06T12:28:43.188Z,41.10
2019-04-06T12:31:31.549Z,40.67
2019-04-06T12:34:19.919Z,54.63
2019-04-06T12:37:05.265Z,35.63
2019-04-06T12:39:55.465Z,36.23
2019-04-06T12:42:42.919Z,38.77
2019-04-06T12:45:42.885Z,39.93
2019-04-06T12:48:40.302Z,35.00
2019-04-06T12:51:29.792Z,34.57
2019-04-06T12:54:18.012Z,34.60
2019-04-06T12:57:04.185Z,35.27
2019-04-06T13:00:01.652Z,36.90
2019-04-06T13:02:57.876Z,34.93
2019-04-06T13:06:01.338Z,30.40
2019-04-06T13:08:45.344Z,39.50
2019-04-06T13:11:22.078Z,38.77
2019-04-06T13:13:58.853Z,29.50
2019-04-06T13:16:53.188Z,28.73
2019-04-06T13:19:40.536Z,30.00
2019-04-06T13:22:47.272Z,31.75
2019-04-06T13:25:23.138Z,31.60
2019-04-06T13:28:07.622Z,31.30
2019-04-06T13:31:01.809Z,26.97
2019-04-06T13:33:58.001Z,27.03
2019-04-06T13:36:45.162Z,31.87
2019-04-06T13:39:36.457Z,29.03
2019-04-06T13:42:16.849Z,28.67
2019-04-06T13:45:02.158Z,25.63
2019-04-06T13:47:49.402Z,53.87
2019-04-06T13:50:33.311Z,23.80
2019-04-06T13:53:16.990Z,27.07
2019-04-06T13:56:14.548Z,33.00
2019-04-06T13:59:01.713Z,25.93
2019-04-06T14:01:46.981Z,21.83
2019-04-06T14:04:23.393Z,28.87
2019-04-06T14:07:15.070Z,26.60
2019-04-06T14:10:09.423Z,22.30
2019-04-06T14:12:56.797Z,23.03
2019-04-06T14:15:41.190Z,24.70
2019-04-06T14:18:47.715Z,23.10
2019-04-06T14:21:33.277Z,27.30
2019-04-06T14:24:24.205Z,25.10
2019-04-06T14:27:11.249Z,25.87
2019-04-06T14:29:49.941Z,23.60
2019-04-06T14:32:37.860Z,25.47
2019-04-06T14:35:16.289Z,20.33
2019-04-06T14:38:04.504Z,25.53
2019-04-06T14:40:51.685Z,22.60
2019-04-06T14:43:38.754Z,29.23
2019-04-06T14:46:33.281Z,23.53
2019-04-06T14:49:31.258Z,23.83
2019-04-06T14:52:20.474Z,26.63
2019-04-06T14:55:01.772Z,22.63
2019-04-06T14:57:56.157Z,30.53
2019-04-06T15:00:38.740Z,21.57
2019-04-06T15:03:27.068Z,21.20
2019-04-06T15:06:11.526Z,22.30
2019-04-06T15:09:18.659Z,19.80
2019-04-06T15:12:00.217Z,18.17
2019-04-06T15:14:47.325Z,18.20
2019-04-06T15:17:38.488Z,25.17
2019-04-06T15:20:26.045Z,17.13
2019-04-06T15:23:23.315Z,19.07
2019-04-06T15:26:11.813Z,19.33
2019-04-06T15:29:15.331Z,18.70
2019-04-06T15:32:02.351Z,19.23
2019-04-06T15:34:43.219Z,17.43
2019-04-06T15:37:46.745Z,20.13
2019-04-06T15:40:50.537Z,20.40
2019-04-06T15:43:27.495Z,19.27
2019-04-06T15:46:18.265Z,17.43
2019-04-06T15:49:07.952Z,15.87
2019-04-06T15:52:12.514Z,18.00
2019-04-06T15:55:13.745Z,20.27
2019-04-06T15:58:06.925Z,14.93
2019-04-06T16:00:52.829Z,15.77
2019-04-06T16:03:41.190Z,14.80
2019-04-06T16:06:35.301Z,16.10
2019-04-06T16:09:27.618Z,14.57
2019-04-06T16:12:34.546Z,16.47
2019-04-06T16:15:26.172Z,25.73
2019-04-06T16:18:10.900Z,14.73
2019-04-06T16:20:49.749Z,14.13
2019-04-06T16:23:28.885Z,14.43
2019-04-06T16:26:17.340Z,16.70
2019-04-06T16:29:02.321Z,14.23
2019-04-06T16:31:42.447Z,17.07
2019-04-06T16:34:43.040Z,13.80
2019-04-06T16:37:37.354Z,15.80
2019-04-06T16:40:29.100Z,14.80
2019-04-06T16:43:26.723Z,16.13
2019-04-06T16:46:12.912Z,16.57
2019-04-06T16:48:53.292Z,18.17
2019-04-06T16:51:40.911Z,15.40
2019-04-06T16:54:32.011Z,15.57
2019-04-06T16:57:10.461Z,15.20
2019-04-06T16:59:57.997Z,12.10
2019-04-06T17:02:48.180Z,20.00
2019-04-06T17:05:42.683Z,14.57
2019-04-06T17:08:37.180Z,15.70
2019-04-06T17:11:14.597Z,14.90
2019-04-06T17:14:02.866Z,15.00
2019-04-06T17:17:02.106Z,14.40
2019-04-06T17:19:48.352Z,14.93
2019-04-06T17:22:42.658Z,20.33
2019-04-06T17:25:31.490Z,16.47
2019-04-06T17:28:13.589Z,15.03
2019-04-06T17:30:57.597Z,14.97
2019-04-06T17:33:55.564Z,14.97
2019-04-06T17:36:32.532Z,17.00
2019-04-06T17:39:41.521Z,15.30
2019-04-06T17:42:17.937Z,16.80
2019-04-06T17:45:16.005Z,16.10
2019-04-06T17:47:54.817Z,14.83
2019-04-06T17:50:42.214Z,15.07
2019-04-06T17:53:36.760Z,16.90
2019-04-06T17:56:28.409Z,14.70
2019-04-06T17:59:29.239Z,18.10
2019-04-06T18:02:32.290Z,19.20
2019-04-06T18:05:30.225Z,16.50
2019-04-06T18:08:34.183Z,18.77
2019-04-06T18:11:22.831Z,15.70
2019-04-06T18:13:53.238Z,20.47
2019-04-06T18:16:25.504Z,17.97
2019-04-06T18:18:55.454Z,18.67
2019-04-06T18:21:25.277Z,18.83
2019-04-06T18:23:55.296Z,18.47
2019-04-06T18:26:24.868Z,18.27
2019-04-06T18:28:55.046Z,15.50
2019-04-06T18:31:43.684Z,17.73
2019-04-06T18:34:13.684Z,53.27
2019-04-06T18:36:53.943Z,42.20
2019-04-06T18:39:24.237Z,87.40
2019-04-06T18:41:53.935Z,55.97
2019-04-06T18:44:24.037Z,31.20
2019-04-06T18:46:54.033Z,24.10
2019-04-06T18:49:23.817Z,21.53
2019-04-06T18:51:53.613Z,23.47
2019-04-06T18:54:23.402Z,37.80
2019-04-06T18:56:53.076Z,46.83
2019-04-06T18:59:23.228Z,33.87
2019-04-06T19:01:52.981Z,31.40
2019-04-06T19:04:22.763Z,24.33
2019-04-06T19:06:52.391Z,26.43
2019-04-06T19:09:24.765Z,25.70
2019-04-06T19:11:56.690Z,21.67
2019-04-06T19:14:25.155Z,21.90
2019-04-06T19:16:54.906Z,19.33
2019-04-06T19:19:24.835Z,19.93
2019-04-06T19:21:54.611Z,20.47
2019-04-06T19:24:24.170Z,19.87
2019-04-06T19:26:54.165Z,21.97
2019-04-06T19:29:24.013Z,24.80
2019-04-06T19:31:53.554Z,20.97
2019-04-06T19:34:23.268Z,22.83
2019-04-06T19:36:53.167Z,24.47
2019-04-06T19:39:23.049Z,22.73
2019-04-06T19:41:52.625Z,21.27
2019-04-06T19:44:22.393Z,18.23
2019-04-06T19:46:52.878Z,18.50
2019-04-06T19:49:22.302Z,19.23
2019-04-06T19:51:52.191Z,21.93
2019-04-06T19:54:22.084Z,20.10
2019-04-06T19:56:51.926Z,18.50
2019-04-06T19:59:21.401Z,18.07
2019-04-06T20:01:51.383Z,23.83
2019-04-06T20:04:20.837Z,27.70
2019-04-06T20:06:50.541Z,21.70
2019-04-06T20:09:20.061Z,23.60
2019-04-06T20:11:49.689Z,21.53
2019-04-06T20:14:19.169Z,21.60
2019-04-06T20:16:48.602Z,21.52
2019-04-06T20:19:18.070Z,21.33
2019-04-06T20:21:47.627Z,21.87
2019-04-06T20:24:17.187Z,20.20
2019-04-06T20:26:46.638Z,21.00
2019-04-06T20:29:16.002Z,21.17
2019-04-06T20:31:45.493Z,22.67
2019-04-06T20:34:15.269Z,17.67
2019-04-06T20:36:45.079Z,21.07
2019-04-06T20:39:15.267Z,20.45
2019-04-06T20:41:44.867Z,21.52
2019-04-06T20:44:14.401Z,26.35
2019-04-06T20:46:44.191Z,21.02
2019-04-06T20:49:13.633Z,20.12
2019-04-06T20:51:43.371Z,21.35
2019-04-06T20:54:14.219Z,25.08
2019-04-06T20:56:53.087Z,24.90
2019-04-06T20:59:15.075Z,21.65
2019-04-06T21:01:45.047Z,21.15
2019-04-06T21:04:14.541Z,22.17
2019-04-06T21:06:44.084Z,23.67
2019-04-06T21:09:15.116Z,21.77
2019-04-06T21:11:46.871Z,22.70
2019-04-06T21:14:19.232Z,20.15
2019-04-06T21:16:49.162Z,22.70
2019-04-06T21:19:19.311Z,25.62
2019-04-06T21:21:49.277Z,26.07
2019-04-06T21:24:18.994Z,26.20
2019-04-06T21:26:48.908Z,28.55
2019-04-06T21:29:18.343Z,30.55
2019-04-06T21:31:47.723Z,36.65
2019-04-06T21:34:17.337Z,33.02
2019-04-06T21:36:47.300Z,33.08
2019-04-06T21:39:16.796Z,36.20
2019-04-06T21:41:46.233Z,34.58
2019-04-06T21:44:15.772Z,34.15
2019-04-06T21:46:45.141Z,35.30
2019-04-06T21:49:14.582Z,33.30
2019-04-06T21:51:43.972Z,36.08
2019-04-06T21:54:13.739Z,37.78
2019-04-06T21:56:43.420Z,33.00
2019-04-06T21:59:15.264Z,31.80
2019-04-06T22:01:44.973Z,31.42
2019-04-06T22:04:23.579Z,34.25
2019-04-06T22:06:46.080Z,32.05
2019-04-06T22:09:16.343Z,32.03
2019-04-06T22:11:45.795Z,33.92
2019-04-06T22:14:15.804Z,38.78
2019-04-06T22:16:45.770Z,40.58
2019-04-06T22:19:15.588Z,41.90
2019-04-06T22:21:45.278Z,35.98
2019-04-06T22:24:14.908Z,30.10
2019-04-06T22:26:44.387Z,35.58
2019-04-06T22:29:14.007Z,38.35
2019-04-06T22:31:43.782Z,38.90
2019-04-06T22:34:13.534Z,35.20
2019-04-06T22:36:43.561Z,38.63
2019-04-06T22:39:13.685Z,32.15
2019-04-06T22:41:43.310Z,36.08
2019-04-06T22:44:13.117Z,30.68
2019-04-06T22:46:43.026Z,37.75
2019-04-06T22:49:12.454Z,30.82
2019-04-06T22:51:42.241Z,29.82
2019-04-06T22:54:11.672Z,30.10
2019-04-06T22:56:41.082Z,32.93
2019-04-06T22:59:11.197Z,30.95
2019-04-06T23:01:41.849Z,33.20
2019-04-06T23:04:22.240Z,30.40
2019-04-06T23:06:58.009Z,29.20
2019-04-06T23:09:27.912Z,32.80
2019-04-06T23:11:57.271Z,30.35
2019-04-06T23:14:27.217Z,40.20
2019-04-06T23:16:56.726Z,42.83
2019-04-06T23:19:26.110Z,38.28
2019-04-06T23:21:55.553Z,35.15
2019-04-06T23:24:24.930Z,37.67
2019-04-06T23:26:54.256Z,33.20
2019-04-06T23:29:23.640Z,30.95
2019-04-06T23:31:53.127Z,32.10
2019-04-06T23:34:22.531Z,36.85
2019-04-06T23:36:52.217Z,37.40
2019-04-06T23:39:21.774Z,51.02
2019-04-06T23:41:51.761Z,35.90
2019-04-06T23:44:21.277Z,37.75
2019-04-06T23:46:51.024Z,32.42
2019-04-06T23:49:20.410Z,34.53
2019-04-06T23:51:49.805Z,39.30
2019-04-06T23:54:19.276Z,35.25
2019-04-06T23:56:48.614Z,37.67
2019-04-06T23:59:18.035Z,33.38
